createdAt,value
2017-06-29T00:02:04.618Z,9.30
2017-06-29T00:04:34.389Z,7.50
2017-06-29T00:07:05.095Z,8.27
2017-06-29T00:09:34.909Z,8.07
2017-06-29T00:12:04.638Z,8.27
2017-06-29T00:14:34.439Z,8.00
2017-06-29T00:17:04.206Z,7.83
2017-06-29T00:19:34.888Z,7.00
2017-06-29T00:22:04.708Z,9.23
2017-06-29T00:24:34.454Z,7.47
2017-06-29T00:27:04.140Z,7.97
2017-06-29T00:29:33.894Z,7.30
2017-06-29T00:32:07.584Z,8.07
2017-06-29T00:34:41.357Z,8.40
2017-06-29T00:37:11.081Z,7.40
2017-06-29T00:39:40.807Z,7.77
2017-06-29T00:42:10.703Z,7.23
2017-06-29T00:44:40.554Z,8.37
2017-06-29T00:47:10.436Z,6.70
2017-06-29T00:49:40.209Z,7.93
2017-06-29T00:52:09.981Z,7.13
2017-06-29T00:54:39.881Z,7.63
2017-06-29T00:57:09.609Z,7.33
2017-06-29T00:59:39.414Z,7.60
2017-06-29T01:02:09.103Z,7.90
2017-06-29T01:04:38.992Z,7.47
2017-06-29T01:07:08.783Z,7.17
2017-06-29T01:09:38.575Z,6.53
2017-06-29T01:12:09.182Z,7.37
2017-06-29T01:14:38.939Z,6.73
2017-06-29T01:17:09.251Z,8.13
2017-06-29T01:19:38.982Z,5.87
2017-06-29T01:22:08.885Z,6.00
2017-06-29T01:24:38.608Z,6.30
2017-06-29T01:27:08.334Z,5.93
2017-06-29T01:29:38.171Z,6.43
2017-06-29T01:32:07.964Z,6.77
2017-06-29T01:34:44.121Z,5.83
2017-06-29T01:37:18.466Z,6.80
2017-06-29T01:39:48.254Z,6.03
2017-06-29T01:42:18.076Z,6.30
2017-06-29T01:44:47.760Z,6.33
2017-06-29T01:47:18.402Z,5.97
2017-06-29T01:49:48.141Z,5.77
2017-06-29T01:52:17.995Z,6.20
2017-06-29T01:54:47.762Z,6.67
2017-06-29T01:57:16.750Z,6.10
2017-06-29T01:59:46.495Z,6.23
2017-06-29T02:02:16.300Z,5.80
2017-06-29T02:04:46.057Z,5.90
2017-06-29T02:07:15.801Z,6.30
2017-06-29T02:09:45.539Z,6.27
2017-06-29T02:12:15.270Z,5.93
2017-06-29T02:14:45.045Z,5.67
2017-06-29T02:17:14.860Z,5.83
2017-06-29T02:19:44.596Z,6.13
2017-06-29T02:22:15.956Z,5.73
2017-06-29T02:24:45.766Z,6.00
2017-06-29T02:27:15.660Z,6.33
2017-06-29T02:29:45.410Z,6.67
2017-06-29T02:32:15.726Z,7.77
2017-06-29T02:34:45.625Z,7.50
2017-06-29T02:37:17.562Z,6.83
2017-06-29T02:39:47.339Z,7.50
2017-06-29T02:42:17.833Z,7.47
2017-06-29T02:44:48.357Z,7.87
2017-06-29T02:47:18.098Z,7.13
2017-06-29T02:49:47.907Z,8.00
2017-06-29T02:52:17.666Z,7.33
2017-06-29T02:54:48.163Z,7.00
2017-06-29T02:57:17.951Z,8.17
2017-06-29T02:59:47.677Z,7.53
2017-06-29T03:02:17.578Z,7.10
2017-06-29T03:04:47.314Z,6.67
2017-06-29T03:07:17.032Z,6.90
2017-06-29T03:09:46.930Z,6.67
2017-06-29T03:12:16.669Z,8.03
2017-06-29T03:14:46.461Z,7.43
2017-06-29T03:17:16.186Z,7.83
2017-06-29T03:19:45.910Z,7.70
2017-06-29T03:22:15.637Z,9.20
2017-06-29T03:24:45.864Z,7.10
2017-06-29T03:27:15.947Z,7.37
2017-06-29T03:29:45.763Z,6.63
2017-06-29T03:32:15.476Z,6.87
2017-06-29T03:34:45.226Z,7.40
2017-06-29T03:37:14.993Z,7.57
2017-06-29T03:39:44.822Z,7.53
2017-06-29T03:42:15.181Z,7.47
2017-06-29T03:44:45.646Z,7.77
2017-06-29T03:47:15.410Z,8.63
2017-06-29T03:49:45.212Z,8.97
2017-06-29T03:52:14.970Z,9.27
2017-06-29T03:54:44.760Z,8.70
2017-06-29T03:57:14.499Z,9.27
2017-06-29T03:59:44.195Z,10.67
2017-06-29T04:02:13.989Z,8.30
2017-06-29T04:04:43.725Z,9.33
2017-06-29T04:07:13.540Z,8.87
2017-06-29T04:09:43.867Z,8.40
2017-06-29T04:12:13.579Z,8.73
2017-06-29T04:14:43.283Z,7.60
2017-06-29T04:17:13.023Z,9.07
2017-06-29T04:19:44.014Z,8.27
2017-06-29T04:22:14.765Z,7.43
2017-06-29T04:24:44.902Z,8.17
2017-06-29T04:27:18.153Z,8.00
2017-06-29T04:29:47.822Z,8.30
2017-06-29T04:32:17.608Z,8.87
2017-06-29T04:34:47.334Z,7.13
2017-06-29T04:37:17.102Z,8.23
2017-06-29T04:39:46.845Z,7.57
2017-06-29T04:42:16.590Z,7.07
2017-06-29T04:44:46.382Z,8.00
2017-06-29T04:47:16.198Z,7.63
2017-06-29T04:49:45.960Z,7.50
2017-06-29T04:52:15.662Z,10.17
2017-06-29T04:54:45.343Z,7.90
2017-06-29T04:57:16.104Z,8.40
2017-06-29T04:59:45.912Z,8.10
2017-06-29T05:02:19.674Z,8.53
2017-06-29T05:04:49.357Z,7.33
2017-06-29T05:07:19.046Z,7.37
2017-06-29T05:09:48.836Z,7.97
2017-06-29T05:12:18.651Z,8.47
2017-06-29T05:14:48.467Z,10.63
2017-06-29T05:17:18.285Z,8.87
2017-06-29T05:19:48.243Z,8.10
2017-06-29T05:22:18.702Z,10.80
2017-06-29T05:24:48.461Z,8.93
2017-06-29T05:27:18.262Z,9.07
2017-06-29T05:29:48.002Z,7.43
2017-06-29T05:32:17.826Z,10.10
2017-06-29T05:34:47.658Z,9.70
2017-06-29T05:37:17.453Z,10.20
2017-06-29T05:39:47.344Z,8.30
2017-06-29T05:42:17.694Z,10.60
2017-06-29T05:44:47.430Z,8.23
2017-06-29T05:47:17.230Z,9.20
2017-06-29T05:49:47.040Z,9.40
2017-06-29T05:52:16.821Z,9.33
2017-06-29T05:54:47.467Z,10.20
2017-06-29T05:57:17.210Z,7.83
2017-06-29T05:59:47.020Z,7.20
2017-06-29T06:02:16.642Z,9.07
2017-06-29T06:04:46.424Z,8.27
2017-06-29T06:07:16.162Z,8.53
2017-06-29T06:09:46.771Z,7.90
2017-06-29T06:12:16.587Z,7.43
2017-06-29T06:14:46.404Z,7.33
2017-06-29T06:17:16.139Z,8.00
2017-06-29T06:19:45.855Z,9.10
2017-06-29T06:22:15.748Z,8.33
2017-06-29T06:24:45.736Z,9.00
2017-06-29T06:27:15.584Z,8.27
2017-06-29T06:29:45.400Z,9.30
2017-06-29T06:32:15.144Z,7.60
2017-06-29T06:34:45.546Z,10.40
2017-06-29T06:37:15.463Z,10.33
2017-06-29T06:39:45.280Z,8.83
2017-06-29T06:42:15.009Z,10.10
2017-06-29T06:44:44.811Z,10.17
2017-06-29T06:47:15.442Z,9.47
2017-06-29T06:49:45.257Z,10.07
2017-06-29T06:52:15.073Z,9.03
2017-06-29T06:54:44.811Z,9.70
2017-06-29T06:57:14.515Z,9.10
2017-06-29T06:59:44.259Z,8.90
2017-06-29T07:02:14.131Z,9.83
2017-06-29T07:04:43.886Z,13.07
2017-06-29T07:07:16.603Z,10.47
2017-06-29T07:09:48.188Z,11.60
2017-06-29T07:12:17.925Z,14.40
2017-06-29T07:14:47.817Z,10.60
2017-06-29T07:17:17.552Z,10.60
2017-06-29T07:19:47.347Z,9.73
2017-06-29T07:22:17.160Z,11.83
2017-06-29T07:24:46.878Z,11.87
2017-06-29T07:27:16.615Z,12.27
2017-06-29T07:29:46.404Z,12.03
2017-06-29T07:32:16.141Z,14.70
2017-06-29T07:34:45.932Z,13.13
2017-06-29T07:37:16.364Z,13.30
2017-06-29T07:39:46.180Z,14.17
2017-06-29T07:42:15.995Z,13.30
2017-06-29T07:44:45.818Z,11.67
2017-06-29T07:47:16.397Z,13.27
2017-06-29T07:49:46.261Z,12.90
2017-06-29T07:52:16.066Z,11.37
2017-06-29T07:54:45.893Z,12.90
2017-06-29T07:57:15.712Z,13.10
2017-06-29T07:59:46.035Z,13.20
2017-06-29T08:02:15.953Z,12.40
2017-06-29T08:04:45.779Z,13.73
2017-06-29T08:07:15.516Z,13.00
2017-06-29T08:09:45.301Z,13.20
2017-06-29T08:12:15.625Z,13.00
2017-06-29T08:14:45.473Z,12.83
2017-06-29T08:17:15.333Z,12.57
2017-06-29T08:19:45.619Z,12.23
2017-06-29T08:22:15.470Z,13.47
2017-06-29T08:24:46.241Z,14.83
2017-06-29T08:27:16.055Z,14.43
2017-06-29T08:29:45.798Z,14.33
2017-06-29T08:32:15.610Z,15.67
2017-06-29T08:34:45.405Z,14.93
2017-06-29T08:37:15.139Z,15.03
2017-06-29T08:39:45.036Z,14.10
2017-06-29T08:42:14.781Z,15.17
2017-06-29T08:44:44.597Z,14.10
2017-06-29T08:47:14.429Z,15.53
2017-06-29T08:49:44.395Z,14.03
2017-06-29T08:52:22.038Z,13.33
2017-06-29T08:54:51.730Z,12.90
2017-06-29T08:57:21.523Z,13.17
2017-06-29T08:59:51.282Z,14.03
2017-06-29T09:02:21.154Z,12.13
2017-06-29T09:04:50.874Z,14.00
2017-06-29T09:07:20.683Z,11.77
2017-06-29T09:09:50.456Z,11.20
2017-06-29T09:12:20.242Z,9.60
2017-06-29T09:14:50.130Z,12.87
2017-06-29T09:17:19.868Z,12.70
2017-06-29T09:19:49.610Z,12.53
2017-06-29T09:22:19.425Z,14.23
2017-06-29T09:24:49.195Z,12.80
2017-06-29T09:27:18.981Z,14.83
2017-06-29T09:29:49.274Z,13.37
2017-06-29T09:32:19.122Z,14.60
2017-06-29T09:34:49.638Z,12.40
2017-06-29T09:37:19.598Z,12.80
2017-06-29T09:39:49.415Z,14.37
2017-06-29T09:42:19.153Z,13.67
2017-06-29T09:44:48.895Z,15.07
2017-06-29T09:47:18.691Z,12.97
2017-06-29T09:49:48.577Z,13.37
2017-06-29T09:52:18.853Z,13.17
2017-06-29T09:54:48.719Z,14.77
2017-06-29T09:57:18.438Z,14.00
2017-06-29T09:59:48.154Z,13.57
2017-06-29T10:02:17.930Z,14.40
2017-06-29T10:04:47.703Z,16.07
2017-06-29T10:07:17.572Z,15.50
2017-06-29T10:09:47.410Z,16.20
2017-06-29T10:12:17.226Z,15.70
2017-06-29T10:14:47.043Z,14.40
2017-06-29T10:17:16.783Z,14.00
2017-06-29T10:19:46.646Z,15.20
2017-06-29T10:22:17.038Z,14.20
2017-06-29T10:24:46.919Z,15.23
2017-06-29T10:27:17.270Z,15.40
2017-06-29T10:29:46.994Z,14.00
2017-06-29T10:32:16.807Z,14.33
2017-06-29T10:34:46.629Z,13.93
2017-06-29T10:37:17.357Z,13.13
2017-06-29T10:39:47.067Z,13.67
2017-06-29T10:42:16.887Z,11.87
2017-06-29T10:44:46.621Z,12.10
2017-06-29T10:47:16.421Z,12.50
2017-06-29T10:49:46.153Z,11.70
2017-06-29T10:52:15.941Z,12.13
2017-06-29T10:54:45.759Z,10.80
2017-06-29T10:57:18.906Z,11.40
2017-06-29T10:59:48.600Z,11.70
2017-06-29T11:02:18.430Z,11.57
2017-06-29T11:04:48.211Z,12.80
2017-06-29T11:07:18.563Z,13.03
2017-06-29T11:09:48.366Z,17.70
2017-06-29T11:12:18.167Z,18.67
2017-06-29T11:14:47.986Z,17.57
2017-06-29T11:17:17.682Z,16.67
2017-06-29T11:19:47.476Z,17.50
2017-06-29T11:22:17.342Z,18.33
2017-06-29T11:24:47.137Z,17.13
2017-06-29T11:27:16.873Z,17.03
2017-06-29T11:29:46.649Z,16.87
2017-06-29T11:32:16.450Z,17.27
2017-06-29T11:34:46.971Z,15.03
2017-06-29T11:37:16.750Z,15.10
2017-06-29T11:39:46.619Z,14.10
2017-06-29T11:42:17.153Z,14.20
2017-06-29T11:44:46.862Z,14.60
2017-06-29T11:47:16.598Z,13.37
2017-06-29T11:49:46.496Z,15.13
2017-06-29T11:52:16.338Z,15.30
2017-06-29T11:54:46.190Z,13.73
2017-06-29T11:57:15.966Z,11.90
2017-06-29T11:59:49.464Z,13.10
2017-06-29T12:02:19.142Z,11.77
2017-06-29T12:04:48.892Z,12.93
2017-06-29T12:07:18.685Z,11.80
2017-06-29T12:09:48.437Z,11.23
2017-06-29T12:12:18.290Z,10.47
2017-06-29T12:14:48.594Z,9.87
2017-06-29T12:17:18.328Z,10.30
2017-06-29T12:19:48.069Z,9.80
2017-06-29T12:22:17.886Z,10.37
2017-06-29T12:24:47.744Z,10.60
2017-06-29T12:27:18.131Z,11.60
2017-06-29T12:29:47.901Z,12.80
2017-06-29T12:32:18.305Z,12.67
2017-06-29T12:34:48.009Z,12.80
2017-06-29T12:37:17.726Z,13.27
2017-06-29T12:39:47.406Z,11.57
2017-06-29T12:42:17.204Z,11.63
2017-06-29T12:44:47.048Z,11.00
2017-06-29T12:47:16.782Z,11.10
2017-06-29T12:49:46.746Z,12.00
2017-06-29T12:52:16.536Z,11.77
2017-06-29T12:54:46.416Z,11.40
2017-06-29T12:57:16.149Z,12.97
2017-06-29T12:59:45.985Z,11.57
2017-06-29T13:02:15.817Z,12.37
2017-06-29T13:04:45.675Z,12.97
2017-06-29T13:07:16.381Z,13.03
2017-06-29T13:09:46.187Z,14.40
2017-06-29T13:12:15.259Z,14.03
2017-06-29T13:14:45.738Z,15.10
2017-06-29T13:17:16.231Z,14.67
2017-06-29T13:19:46.720Z,15.83
2017-06-29T13:22:16.470Z,17.47
2017-06-29T13:24:47.786Z,15.37
2017-06-29T13:27:17.534Z,16.17
2017-06-29T13:29:47.234Z,16.10
2017-06-29T13:32:17.130Z,14.50
2017-06-29T13:34:46.886Z,14.90
2017-06-29T13:37:16.763Z,14.73
2017-06-29T13:39:46.578Z,14.60
2017-06-29T13:42:15.989Z,12.87
2017-06-29T13:44:45.800Z,11.93
2017-06-29T13:47:16.281Z,11.97
2017-06-29T13:49:46.050Z,12.00
2017-06-29T13:52:15.791Z,11.87
2017-06-29T13:54:46.327Z,12.10
2017-06-29T13:57:16.210Z,12.27
2017-06-29T13:59:45.937Z,11.50
2017-06-29T14:02:15.743Z,12.63
2017-06-29T14:04:45.596Z,10.77
2017-06-29T14:07:15.392Z,12.63
2017-06-29T14:09:45.206Z,10.93
2017-06-29T14:12:15.105Z,11.90
2017-06-29T14:14:44.914Z,12.13
2017-06-29T14:17:14.634Z,11.73
2017-06-29T14:19:44.246Z,11.93
2017-06-29T14:22:14.062Z,10.50
2017-06-29T14:24:43.973Z,10.10
2017-06-29T14:27:13.752Z,9.30
2017-06-29T14:29:43.458Z,8.10
2017-06-29T14:32:13.941Z,9.87
2017-06-29T14:34:43.497Z,9.13
2017-06-29T14:37:12.926Z,8.80
2017-06-29T14:39:44.483Z,9.50
2017-06-29T14:42:16.096Z,9.77
2017-06-29T14:44:48.004Z,9.60
2017-06-29T14:47:18.359Z,9.73
2017-06-29T14:49:49.302Z,10.03
2017-06-29T14:52:21.090Z,5.80
2017-06-29T14:54:52.003Z,3.77
2017-06-29T14:57:22.742Z,3.50
2017-06-29T14:59:52.761Z,3.10
2017-06-29T15:02:24.048Z,3.80
2017-06-29T15:04:56.188Z,2.97
2017-06-29T15:07:28.786Z,2.63
2017-06-29T15:10:01.185Z,3.20
2017-06-29T15:12:31.725Z,2.97
2017-06-29T15:15:03.176Z,2.83
2017-06-29T15:17:33.753Z,2.70
2017-06-29T15:20:05.003Z,3.20
2017-06-29T15:22:34.819Z,3.10
2017-06-29T15:25:06.309Z,3.03
2017-06-29T15:27:40.605Z,3.20
2017-06-29T15:30:12.848Z,4.57
2017-06-29T15:32:43.083Z,5.30
2017-06-29T15:35:15.271Z,5.23
2017-06-29T15:37:46.093Z,6.20
2017-06-29T15:40:18.860Z,5.90
2017-06-29T15:42:49.612Z,6.57
2017-06-29T15:45:20.781Z,7.50
2017-06-29T15:47:52.691Z,6.70
2017-06-29T15:50:25.174Z,7.97
2017-06-29T15:53:00.412Z,8.30
2017-06-29T15:55:32.250Z,7.80
2017-06-29T15:58:04.884Z,8.10
2017-06-29T16:00:37.629Z,7.43
2017-06-29T16:03:09.045Z,6.90
2017-06-29T16:05:39.966Z,7.50
2017-06-29T16:08:09.704Z,7.10
2017-06-29T16:10:39.510Z,6.70
2017-06-29T16:13:10.057Z,6.90
2017-06-29T16:15:40.586Z,6.87
2017-06-29T16:18:11.077Z,8.03
2017-06-29T16:20:40.825Z,7.30
2017-06-29T16:23:10.538Z,7.63
2017-06-29T16:25:40.399Z,7.90
2017-06-29T16:28:10.082Z,7.03
2017-06-29T16:30:42.907Z,7.73
2017-06-29T16:33:12.598Z,7.10
2017-06-29T16:35:42.386Z,7.23
2017-06-29T16:38:12.370Z,7.20
2017-06-29T16:40:42.186Z,7.57
2017-06-29T16:43:11.998Z,7.97
2017-06-29T16:45:42.262Z,7.60
2017-06-29T16:48:12.146Z,7.30
2017-06-29T16:50:41.930Z,7.50
2017-06-29T16:53:11.706Z,7.60
2017-06-29T16:55:41.618Z,8.00
2017-06-29T16:58:11.437Z,6.97
2017-06-29T17:00:41.429Z,8.13
2017-06-29T17:03:11.174Z,7.20
2017-06-29T17:05:41.074Z,7.93
2017-06-29T17:08:10.801Z,7.00
2017-06-29T17:10:40.693Z,6.83
2017-06-29T17:13:10.458Z,7.10
2017-06-29T17:15:40.221Z,7.20
2017-06-29T17:18:10.550Z,6.77
2017-06-29T17:20:40.978Z,7.00
2017-06-29T17:23:11.144Z,6.83
2017-06-29T17:25:41.111Z,7.27
2017-06-29T17:28:10.874Z,6.57
2017-06-29T17:30:40.602Z,6.73
2017-06-29T17:33:10.392Z,7.07
2017-06-29T17:35:40.154Z,6.30
2017-06-29T17:38:09.928Z,5.73
2017-06-29T17:40:39.733Z,6.40
2017-06-29T17:43:09.629Z,6.80
2017-06-29T17:45:39.344Z,5.93
2017-06-29T17:48:09.157Z,6.10
2017-06-29T17:50:38.882Z,6.93
2017-06-29T17:53:10.019Z,6.27
2017-06-29T17:55:41.242Z,6.07
2017-06-29T17:58:10.983Z,6.57
2017-06-29T18:00:41.466Z,5.93
2017-06-29T18:03:12.786Z,6.67
2017-06-29T18:05:44.318Z,6.57
2017-06-29T18:08:16.071Z,6.70
2017-06-29T18:10:46.832Z,6.03
2017-06-29T18:13:16.566Z,6.77
2017-06-29T18:15:46.378Z,6.93
2017-06-29T18:18:18.703Z,7.30
2017-06-29T18:20:49.361Z,6.93
2017-06-29T18:23:19.375Z,6.67
2017-06-29T18:25:49.123Z,7.37
2017-06-29T18:28:18.929Z,6.70
2017-06-29T18:30:49.035Z,6.87
2017-06-29T18:33:19.442Z,6.73
2017-06-29T18:35:50.027Z,7.60
2017-06-29T18:38:19.829Z,6.33
2017-06-29T18:40:49.718Z,6.13
2017-06-29T18:43:19.457Z,7.77
2017-06-29T18:45:49.177Z,6.57
2017-06-29T18:48:20.259Z,7.60
2017-06-29T18:50:52.345Z,7.10
2017-06-29T18:53:23.486Z,7.80
2017-06-29T18:55:54.500Z,7.40
2017-06-29T18:58:25.783Z,8.00
2017-06-29T19:00:57.950Z,7.23
2017-06-29T19:03:28.603Z,7.97
2017-06-29T19:05:58.354Z,7.87
2017-06-29T19:08:29.527Z,8.37
2017-06-29T19:11:02.812Z,8.40
2017-06-29T19:13:35.734Z,7.13
2017-06-29T19:16:08.043Z,8.03
2017-06-29T19:18:40.913Z,7.43
2017-06-29T19:21:13.204Z,7.40
2017-06-29T19:23:45.287Z,7.27
2017-06-29T19:26:17.482Z,7.43
2017-06-29T19:28:50.866Z,8.20
2017-06-29T19:31:23.106Z,7.47
2017-06-29T19:33:55.800Z,7.87
2017-06-29T19:36:29.121Z,8.77
2017-06-29T19:39:02.431Z,9.23
2017-06-29T19:41:37.965Z,10.73
2017-06-29T19:44:09.744Z,9.30
2017-06-29T19:46:39.638Z,9.33
2017-06-29T19:49:09.435Z,9.63
2017-06-29T19:51:39.141Z,9.13
2017-06-29T19:54:09.025Z,10.40
2017-06-29T19:56:39.352Z,11.53
2017-06-29T19:59:09.167Z,11.97
2017-06-29T20:01:38.916Z,12.20
2017-06-29T20:04:08.804Z,12.23
2017-06-29T20:06:38.617Z,14.13
2017-06-29T20:09:08.377Z,11.00
2017-06-29T20:11:38.849Z,13.53
2017-06-29T20:14:09.133Z,13.67
2017-06-29T20:16:39.828Z,13.30
2017-06-29T20:19:09.569Z,12.83
2017-06-29T20:21:39.394Z,11.87
2017-06-29T20:24:09.227Z,13.17
2017-06-29T20:26:38.931Z,13.00
2017-06-29T20:29:08.682Z,12.90
2017-06-29T20:31:38.426Z,13.60
2017-06-29T20:34:08.144Z,12.90
2017-06-29T20:36:37.992Z,13.60
2017-06-29T20:39:07.788Z,12.67
2017-06-29T20:41:40.116Z,12.13
2017-06-29T20:44:11.790Z,10.90
2017-06-29T20:46:41.653Z,13.67
2017-06-29T20:49:12.110Z,12.90
2017-06-29T20:51:41.978Z,11.83
2017-06-29T20:54:11.748Z,12.63
2017-06-29T20:56:41.684Z,12.63
2017-06-29T20:59:11.458Z,12.20
2017-06-29T21:01:42.137Z,12.90
2017-06-29T21:04:11.952Z,11.93
2017-06-29T21:06:41.770Z,12.13
2017-06-29T21:09:11.523Z,11.60
2017-06-29T21:11:41.429Z,11.57
2017-06-29T21:14:11.319Z,10.63
2017-06-29T21:16:41.113Z,11.37
2017-06-29T21:19:10.951Z,12.17
2017-06-29T21:21:40.763Z,12.00
2017-06-29T21:24:10.582Z,12.43
2017-06-29T21:26:40.344Z,11.90
2017-06-29T21:29:10.215Z,12.67
2017-06-29T21:31:39.926Z,13.17
2017-06-29T21:34:09.682Z,12.63
2017-06-29T21:36:39.456Z,11.47
2017-06-29T21:39:09.069Z,12.67
2017-06-29T21:41:38.861Z,12.00
2017-06-29T21:44:08.699Z,13.10
2017-06-29T21:46:38.569Z,12.47
2017-06-29T21:49:09.046Z,12.93
2017-06-29T21:51:38.770Z,12.93
2017-06-29T21:54:08.575Z,12.10
2017-06-29T21:56:39.112Z,13.07
2017-06-29T21:59:09.013Z,14.73
2017-06-29T22:01:38.779Z,12.63
2017-06-29T22:04:08.609Z,12.30
2017-06-29T22:06:38.052Z,13.00
2017-06-29T22:09:07.803Z,12.07
2017-06-29T22:11:37.696Z,12.13
2017-06-29T22:14:07.442Z,12.03
2017-06-29T22:16:37.258Z,12.70
2017-06-29T22:19:07.807Z,12.40
2017-06-29T22:21:38.123Z,13.30
2017-06-29T22:24:07.287Z,10.20
2017-06-29T22:26:36.898Z,11.07
2017-06-29T22:29:06.638Z,10.33
2017-06-29T22:31:37.078Z,8.37
2017-06-29T22:34:07.574Z,8.73
2017-06-29T22:36:38.107Z,12.67
2017-06-29T22:39:07.839Z,10.20
2017-06-29T22:41:37.654Z,8.80
2017-06-29T22:44:07.510Z,10.40
2017-06-29T22:46:37.270Z,8.73
2017-06-29T22:49:06.984Z,8.53
2017-06-29T22:51:36.717Z,10.67
2017-06-29T22:54:06.405Z,9.67
2017-06-29T22:56:36.224Z,8.23
2017-06-29T22:59:05.953Z,12.20
2017-06-29T23:01:35.726Z,10.30
2017-06-29T23:04:05.528Z,11.10
2017-06-29T23:06:35.961Z,8.97
2017-06-29T23:09:05.366Z,8.97
2017-06-29T23:11:36.038Z,8.17
2017-06-29T23:14:05.856Z,10.20
2017-06-29T23:16:35.591Z,8.77
2017-06-29T23:19:06.170Z,9.43
2017-06-29T23:21:35.855Z,8.87
2017-06-29T23:24:05.732Z,9.13
2017-06-29T23:26:35.463Z,8.00
2017-06-29T23:29:05.148Z,11.17
2017-06-29T23:31:35.179Z,7.27
2017-06-29T23:34:05.710Z,7.50
2017-06-29T23:36:35.531Z,7.30
2017-06-29T23:39:04.498Z,7.03
2017-06-29T23:41:34.173Z,6.67
2017-06-29T23:44:04.012Z,9.30
2017-06-29T23:46:34.501Z,9.40
2017-06-29T23:49:04.404Z,8.63
2017-06-29T23:51:35.344Z,8.40
2017-06-29T23:54:05.091Z,9.10
2017-06-29T23:56:35.604Z,6.80
2017-06-29T23:59:06.079Z,7.97
